Time;durP1;ratioP1;P1;durP2;ratioP2;P2;SDS_P1;SDS_P2;PMS_P1;PMS_P2;Temp;Humidity;BMP_temperature;BMP_pressure;BME280_temperature;BME280_humidity;BME280_pressure;Samples;Min_cycle;Max_cycle;Signal;HPM_P1;HPM_P2
2021/11/24 00:01:32;;;;;;;24.90;16.80;;;;;;;2.76;67.26;101160.19;1782965;80;21969;-70
2021/11/24 00:04:00;;;;;;;24.27;15.32;;;;;;;2.78;67.23;101167.42;1781989;80;21054;-69
2021/11/24 00:06:27;;;;;;;20.60;14.28;;;;;;;2.78;67.20;101166.10;1783119;80;21010;-69
2021/11/24 00:08:53;;;;;;;27.85;17.17;;;;;;;2.75;67.19;101172.56;1783289;80;21020;-68
2021/11/24 00:11:20;;;;;;;26.60;17.75;;;;;;;2.74;67.23;101178.05;1759474;80;21592;-69
2021/11/24 00:13:47;;;;;;;27.32;17.70;;;;;;;2.79;67.28;101182.23;1757160;81;21149;-69
2021/11/24 00:16:16;;;;;;;25.88;16.52;;;;;;;2.83;67.21;101172.95;1757357;81;21137;-69
2021/11/24 00:18:43;;;;;;;23.80;16.23;;;;;;;2.87;67.17;101179.48;1756784;81;21026;-69
2021/11/24 00:21:10;;;;;;;24.12;15.65;;;;;;;2.82;67.11;101175.27;1756941;81;20985;-68
2021/11/24 00:23:37;;;;;;;26.10;17.75;;;;;;;2.74;67.16;101179.37;1757145;81;20962;-69
2021/11/24 00:26:04;;;;;;;27.62;17.87;;;;;;;2.70;67.26;101180.73;1757337;81;21156;-68
2021/11/24 00:28:30;;;;;;;28.83;18.45;;;;;;;2.71;67.38;101185.02;1757166;81;21564;-68
2021/11/24 00:30:58;;;;;;;25.20;16.20;;;;;;;2.73;67.39;101181.67;1757104;81;21010;-68
2021/11/24 00:33:26;;;;;;;24.15;15.05;;;;;;;2.75;67.38;101183.63;1757219;81;21049;-68
2021/11/24 00:35:54;;;;;;;23.12;15.70;;;;;;;2.71;67.38;101185.83;1757294;81;21446;-69
2021/11/24 00:38:21;;;;;;;30.48;18.75;;;;;;;2.62;67.37;101186.14;1757396;81;21148;-69
2021/11/24 00:40:47;;;;;;;28.32;18.55;;;;;;;2.57;67.55;101192.00;1757314;81;21010;-68
2021/11/24 00:43:14;;;;;;;28.23;18.50;;;;;;;2.65;67.64;101189.73;1757159;81;21085;-68
2021/11/24 00:45:41;;;;;;;27.37;17.45;;;;;;;2.72;67.60;101193.23;1757084;81;20950;-69
2021/11/24 00:48:09;;;;;;;28.10;17.92;;;;;;;2.78;67.50;101193.30;1757103;81;21026;-69
2021/11/24 00:50:36;;;;;;;27.85;17.85;;;;;;;2.81;67.42;101194.23;1757257;81;21117;-69
2021/11/24 00:53:03;;;;;;;26.25;17.02;;;;;;;2.81;67.36;101194.75;1756925;81;20948;-69
2021/11/24 00:55:30;;;;;;;26.60;17.32;;;;;;;2.83;67.33;101200.66;1757178;81;20994;-69
2021/11/24 00:57:57;;;;;;;23.85;15.45;;;;;;;2.86;67.32;101196.80;1776726;80;21087;-69
2021/11/24 01:00:24;;;;;;;22.65;15.40;;;;;;;2.82;67.26;101195.86;1762697;80;21010;-69
2021/11/24 01:02:51;;;;;;;27.95;17.92;;;;;;;2.75;67.26;101198.95;1758484;80;21760;-69
2021/11/24 01:05:18;;;;;;;25.55;17.45;;;;;;;2.75;67.35;101199.45;1782949;80;21018;-69
2021/11/24 01:07:45;;;;;;;26.05;18.00;;;;;;;2.75;67.32;101196.81;1782941;80;21482;-69
2021/11/24 01:10:12;;;;;;;29.52;17.65;;;;;;;2.75;67.34;101198.95;1782951;80;21016;-69
2021/11/24 01:12:40;;;;;;;26.37;17.32;;;;;;;2.80;67.38;101201.03;1783044;80;21427;-69
2021/11/24 01:15:09;;;;;;;26.55;17.15;;;;;;;2.79;67.29;101198.06;1783112;80;21128;-69
2021/11/24 01:17:37;;;;;;;29.42;19.15;;;;;;;2.75;67.34;101204.22;1782783;80;20999;-69
2021/11/24 01:20:06;;;;;;;25.88;17.32;;;;;;;2.84;67.13;101203.59;1770488;80;21093;-69
2021/11/24 01:22:34;;;;;;;29.12;18.25;;;;;;;2.88;67.07;101204.84;1757101;81;21006;-69
2021/11/24 01:25:01;;;;;;;26.68;16.95;;;;;;;2.88;67.02;101211.44;1756887;81;21525;-69
2021/11/24 01:27:29;;;;;;;27.40;17.40;;;;;;;2.88;67.01;101206.16;1757051;81;21478;-69
2021/11/24 01:29:56;;;;;;;22.87;15.65;;;;;;;2.90;67.07;101215.22;1756939;81;21101;-69
2021/11/24 01:32:23;;;;;;;24.95;17.15;;;;;;;2.92;67.05;101207.91;1757128;81;21030;-69
2021/11/24 01:34:50;;;;;;;27.05;17.87;;;;;;;2.91;67.00;101214.20;1757145;81;20947;-69
2021/11/24 01:37:16;;;;;;;28.20;18.52;;;;;;;2.84;67.00;101211.52;1757028;81;21096;-69
2021/11/24 01:39:43;;;;;;;24.07;16.25;;;;;;;2.80;67.04;101213.72;1757314;81;21152;-69
2021/11/24 01:42:10;;;;;;;27.20;17.35;;;;;;;2.80;67.11;101210.27;1756994;81;21505;-69
2021/11/24 01:44:37;;;;;;;30.50;18.25;;;;;;;2.79;67.15;101210.75;1757121;81;21086;-69
2021/11/24 01:47:05;;;;;;;27.77;16.93;;;;;;;2.79;67.13;101209.42;1729787;81;21065;-69
2021/11/24 01:49:32;;;;;;;30.08;17.42;;;;;;;2.78;67.19;101216.22;1774675;80;21495;-69
2021/11/24 01:51:59;;;;;;;29.02;18.82;;;;;;;2.77;67.23;101216.73;1782739;80;21158;-69
2021/11/24 01:54:26;;;;;;;31.80;19.10;;;;;;;2.79;67.31;101216.53;1782981;80;21052;-69
2021/11/24 01:56:54;;;;;;;35.08;20.88;;;;;;;2.86;67.33;101222.67;1761323;80;21126;-70
2021/11/24 01:59:21;;;;;;;36.08;20.50;;;;;;;2.92;67.36;101216.64;1757006;81;21047;-70
2021/11/24 02:01:49;;;;;;;30.23;17.70;;;;;;;3.04;67.40;101216.45;1757102;81;21032;-70
2021/11/24 02:04:17;;;;;;;29.90;18.25;;;;;;;3.18;67.31;101215.23;1757167;81;21110;-69
2021/11/24 02:06:45;;;;;;;28.52;17.73;;;;;;;3.15;67.02;101216.93;1756939;81;21039;-70
2021/11/24 02:09:12;;;;;;;26.30;16.82;;;;;;;3.04;67.01;101223.05;1757018;81;21004;-70
2021/11/24 02:11:42;;;;;;;29.27;17.73;;;;;;;2.99;67.05;101216.70;1757085;81;20996;-69
2021/11/24 02:14:09;;;;;;;31.52;17.85;;;;;;;2.94;67.13;101219.11;1757329;81;20941;-69
2021/11/24 02:16:50;;;;;;;31.23;18.30;;;;;;;2.90;67.23;101218.67;1757012;81;20992;-69
2021/11/24 02:19:21;;;;;;;33.85;20.45;;;;;;;2.87;67.30;101217.73;1757175;81;21113;-68
2021/11/24 02:21:53;;;;;;;32.58;19.00;;;;;;;2.89;67.45;101221.48;1756233;81;21040;-68
2021/11/24 02:24:22;;;;;;;27.77;16.52;;;;;;;2.93;67.44;101226.22;1757681;81;21000;-68
2021/11/24 02:26:49;;;;;;;34.23;20.82;;;;;;;2.88;67.68;101227.78;1756960;81;21126;-69
2021/11/24 02:29:16;;;;;;;36.60;21.30;;;;;;;2.93;67.91;101228.01;1757166;81;21091;-68
2021/11/24 02:31:53;;;;;;;37.08;21.90;;;;;;;3.05;68.00;101229.14;1756935;81;21086;-69
2021/11/24 02:34:20;;;;;;;35.43;20.88;;;;;;;3.17;68.00;101226.81;1757458;81;20961;-69
2021/11/24 02:36:47;;;;;;;36.42;22.32;;;;;;;3.32;68.03;101230.66;1756966;81;20975;-69
2021/11/24 02:39:14;;;;;;;37.98;22.25;;;;;;;3.45;67.85;101230.23;1758270;80;21581;-69
2021/11/24 02:41:42;;;;;;;34.13;20.55;;;;;;;3.52;67.63;101227.64;1757158;81;21148;-69
2021/11/24 02:44:28;;;;;;;35.03;21.15;;;;;;;3.56;67.37;101235.51;1757080;81;21054;-69
2021/11/24 02:47:17;;;;;;;38.10;22.67;;;;;;;3.54;67.24;101229.59;1756981;81;20994;-69
2021/11/24 02:49:47;;;;;;;37.50;21.82;;;;;;;3.56;67.10;101234.70;1756910;81;21073;-69
2021/11/24 02:52:14;;;;;;;36.65;22.85;;;;;;;3.55;67.07;101235.69;1757018;81;21002;-69
2021/11/24 02:54:41;;;;;;;36.15;20.37;;;;;;;3.59;66.99;101241.73;1756854;80;21156;-69
2021/11/24 02:57:11;;;;;;;37.85;22.45;;;;;;;3.64;66.82;101247.23;1716308;81;21047;-69
2021/11/24 02:59:38;;;;;;;37.15;23.30;;;;;;;3.63;66.87;101244.80;1757271;81;20960;-69
2021/11/24 03:02:07;;;;;;;39.23;23.57;;;;;;;3.68;66.90;101252.94;1757717;80;21560;-69
2021/11/24 03:04:35;;;;;;;35.83;22.25;;;;;;;3.73;66.88;101249.22;1774628;80;21067;-69
2021/11/24 03:07:05;;;;;;;37.40;23.57;;;;;;;3.77;66.76;101253.09;1782897;80;22320;-69
2021/11/24 03:09:32;;;;;;;37.13;22.30;;;;;;;3.79;66.63;101252.41;1782844;80;21004;-69
2021/11/24 03:12:00;;;;;;;37.70;23.05;;;;;;;3.83;66.59;101247.55;1782754;80;21043;-69
2021/11/24 03:14:27;;;;;;;36.00;23.30;;;;;;;3.82;66.48;101245.42;1783069;80;21510;-69
2021/11/24 03:16:59;;;;;;;36.00;22.40;;;;;;;3.93;66.18;101246.69;1783007;80;21015;-69
2021/11/24 03:19:23;;;;;;;39.15;22.55;;;;;;;3.85;66.32;101250.31;1782315;80;21129;-70
2021/11/24 03:21:50;;;;;;;39.18;23.35;;;;;;;3.85;66.43;101250.31;1782858;80;20972;-69
2021/11/24 03:24:17;;;;;;;34.58;21.20;;;;;;;3.85;66.38;101245.03;1783558;80;21562;-69
2021/11/24 03:26:46;;;;;;;33.13;20.17;;;;;;;3.84;66.31;101249.17;1783121;80;21510;-69
2021/11/24 03:29:13;;;;;;;30.12;19.60;;;;;;;3.69;66.25;101249.31;1783361;80;21098;-69
2021/11/24 03:31:40;;;;;;;33.15;20.27;;;;;;;3.52;66.30;101246.97;1783155;80;21146;-69
2021/11/24 03:34:09;;;;;;;31.10;20.25;;;;;;;3.41;66.41;101249.31;1782977;80;21459;-68
2021/11/24 03:36:38;;;;;;;33.65;20.70;;;;;;;3.32;66.48;101249.95;1783183;80;21069;-68
2021/11/24 03:39:05;;;;;;;32.90;20.23;;;;;;;3.22;66.56;101250.28;1783377;80;21023;-69
2021/11/24 03:41:33;;;;;;;34.60;21.45;;;;;;;3.14;66.69;101264.14;1783290;80;20956;-69
2021/11/24 03:44:00;;;;;;;34.88;20.82;;;;;;;3.10;66.77;101270.81;1783031;80;21740;-69
2021/11/24 03:46:26;;;;;;;40.05;21.73;;;;;;;3.12;66.89;101269.59;1782948;80;21154;-69
2021/11/24 03:48:53;;;;;;;37.42;22.98;;;;;;;3.15;66.90;101281.60;1769173;80;20955;-69
2021/11/24 03:51:20;;;;;;;33.18;20.27;;;;;;;3.20;66.90;101275.27;1757559;81;20967;-69
2021/11/24 03:53:48;;;;;;;37.05;22.77;;;;;;;3.29;66.88;101278.05;1758095;80;21654;-70
2021/11/24 03:56:15;;;;;;;37.67;22.65;;;;;;;3.42;66.68;101272.91;1757288;81;21823;-69
2021/11/24 03:58:42;;;;;;;37.65;22.10;;;;;;;3.39;66.76;101269.33;1757751;80;21073;-69
2021/11/24 04:01:10;;;;;;;33.95;20.77;;;;;;;3.42;66.97;101275.55;1777145;80;21003;-69
2021/11/24 04:03:37;;;;;;;33.90;20.62;;;;;;;3.49;66.97;101283.52;1782831;80;21027;-69
2021/11/24 04:06:04;;;;;;;35.35;21.60;;;;;;;3.55;66.94;101277.44;1783091;80;21699;-69
2021/11/24 04:08:31;;;;;;;33.70;20.57;;;;;;;3.59;66.94;101277.90;1783113;80;21168;-69
2021/11/24 04:10:58;;;;;;;34.05;21.15;;;;;;;3.62;66.88;101282.77;1783154;80;21562;-69
2021/11/24 04:13:25;;;;;;;35.52;22.67;;;;;;;3.64;66.82;101288.69;1782886;80;21039;-69
2021/11/24 04:15:52;;;;;;;32.55;20.57;;;;;;;3.67;66.79;101286.98;1783327;80;20952;-69
2021/11/24 04:18:18;;;;;;;37.35;22.30;;;;;;;3.73;66.75;101292.81;1783127;80;20929;-69
2021/11/24 04:20:45;;;;;;;34.00;21.57;;;;;;;3.77;66.62;101288.77;1783305;80;21910;-68
2021/11/24 04:23:12;;;;;;;37.25;22.73;;;;;;;3.77;66.64;101287.45;1782918;80;21075;-70
2021/11/24 04:25:41;;;;;;;36.30;22.13;;;;;;;3.86;66.67;101288.94;1783121;80;20992;-69
2021/11/24 04:28:08;;;;;;;34.80;23.27;;;;;;;3.90;66.58;101292.81;1783099;80;21103;-68
2021/11/24 04:30:35;;;;;;;33.78;21.80;;;;;;;3.91;66.58;101290.47;1783073;80;21506;-68
2021/11/24 04:33:02;;;;;;;37.60;23.62;;;;;;;3.94;66.50;101287.44;1783094;80;21101;-69
2021/11/24 04:35:29;;;;;;;37.30;22.58;;;;;;;3.98;66.49;101290.50;1783189;80;21529;-69
2021/11/24 04:37:57;;;;;;;33.48;21.40;;;;;;;4.06;66.33;101291.69;1783023;80;21513;-69
2021/11/24 04:40:24;;;;;;;34.90;22.32;;;;;;;4.10;65.90;101284.17;1783217;80;21031;-69
2021/11/24 04:42:52;;;;;;;34.92;21.70;;;;;;;3.99;65.84;101278.43;1783026;80;20932;-68
2021/11/24 04:45:20;;;;;;;37.55;23.00;;;;;;;3.98;65.84;101283.90;1783015;80;21398;-68
2021/11/24 04:47:48;;;;;;;34.13;23.10;;;;;;;3.94;65.74;101290.08;1782733;80;20924;-69
2021/11/24 04:50:16;;;;;;;36.13;22.58;;;;;;;3.92;65.74;101288.16;1783158;80;20999;-69
2021/11/24 04:52:44;;;;;;;35.08;21.23;;;;;;;3.91;65.73;101289.66;1782762;80;21420;-69
2021/11/24 04:55:12;;;;;;;35.58;22.20;;;;;;;3.75;66.03;101294.74;1782062;80;21043;-68
2021/11/24 04:57:39;;;;;;;38.02;22.30;;;;;;;3.70;66.13;101292.69;1783012;80;21150;-68
2021/11/24 05:00:13;;;;;;;34.23;22.65;;;;;;;3.69;66.21;101294.22;1782739;80;20976;-68
2021/11/24 05:02:40;;;;;;;34.58;22.22;;;;;;;3.67;66.23;101293.59;1781919;80;20983;-69
2021/11/24 05:05:08;;;;;;;35.55;22.15;;;;;;;3.65;66.30;101307.48;1751465;81;20987;-69
2021/11/24 05:07:35;;;;;;;36.58;22.20;;;;;;;3.63;66.36;101307.69;1749337;82;21066;-69
2021/11/24 05:10:05;;;;;;;35.48;22.25;;;;;;;3.67;66.53;101310.25;1749300;82;21031;-70
2021/11/24 05:12:34;;;;;;;34.88;22.85;;;;;;;3.83;66.40;101313.10;1749041;82;21020;-69
2021/11/24 05:15:04;;;;;;;35.13;22.93;;;;;;;3.92;66.41;101319.88;1749525;82;21011;-69
2021/11/24 05:17:32;;;;;;;30.55;19.80;;;;;;;4.00;66.39;101318.89;1749366;82;21074;-69
2021/11/24 05:20:02;;;;;;;31.62;20.40;;;;;;;3.91;66.60;101320.86;1749297;82;20935;-69
2021/11/24 05:22:29;;;;;;;35.28;21.50;;;;;;;3.88;66.68;101318.64;1749398;82;21965;-69
2021/11/24 05:24:56;;;;;;;31.85;21.05;;;;;;;3.93;66.75;101315.40;1749606;82;21061;-69
2021/11/24 05:27:23;;;;;;;36.08;23.27;;;;;;;3.93;66.68;101319.36;1749210;82;21082;-69
2021/11/24 05:29:50;;;;;;;33.80;21.70;;;;;;;3.92;66.76;101323.03;1749399;82;20990;-70
2021/11/24 05:32:17;;;;;;;30.10;21.30;;;;;;;3.99;66.68;101320.73;1749399;82;21034;-70
2021/11/24 05:34:44;;;;;;;31.95;21.57;;;;;;;4.02;66.61;101322.68;1749841;82;21288;-70
2021/11/24 05:37:11;;;;;;;34.63;21.75;;;;;;;4.04;66.58;101328.06;1749273;82;21046;-70
2021/11/24 05:39:38;;;;;;;33.73;21.42;;;;;;;4.06;66.63;101331.84;1749691;82;21494;-70
2021/11/24 05:42:08;;;;;;;32.20;21.00;;;;;;;4.10;66.70;101331.25;1749330;82;21014;-70
2021/11/24 05:44:37;;;;;;;28.27;20.02;;;;;;;4.18;66.71;101335.08;1749576;82;21121;-70
2021/11/24 05:47:09;;;;;;;31.25;20.55;;;;;;;4.20;66.68;101342.28;1749194;82;22157;-70
2021/11/24 05:49:37;;;;;;;29.00;19.62;;;;;;;4.18;66.68;101344.33;1749400;82;20991;-69
2021/11/24 05:52:05;;;;;;;28.80;19.57;;;;;;;4.28;66.63;101341.33;1750657;81;21085;-69
2021/11/24 05:54:31;;;;;;;26.90;18.77;;;;;;;4.38;66.62;101343.61;1763124;81;21463;-70
2021/11/24 05:56:59;;;;;;;27.98;19.57;;;;;;;4.45;66.57;101346.59;1767294;81;21003;-68
2021/11/24 05:59:25;;;;;;;31.55;20.37;;;;;;;4.50;66.57;101345.17;1767203;81;21757;-70
2021/11/24 06:01:52;;;;;;;28.25;19.90;;;;;;;4.58;66.61;101352.45;1766734;81;21442;-69
2021/11/24 06:04:20;;;;;;;27.58;19.30;;;;;;;4.66;66.58;101351.45;1767170;81;21569;-69
2021/11/24 06:06:47;;;;;;;25.57;18.10;;;;;;;4.74;66.49;101347.80;1767535;81;21086;-71
2021/11/24 06:09:14;;;;;;;26.35;17.65;;;;;;;4.76;66.32;101354.53;1767173;81;20999;-69
2021/11/24 06:11:41;;;;;;;27.52;18.75;;;;;;;4.74;66.22;101343.34;1767036;81;21301;-70
2021/11/24 06:14:09;;;;;;;27.05;18.75;;;;;;;4.74;66.20;101347.80;1766988;81;21039;-68
2021/11/24 06:16:36;;;;;;;26.00;18.42;;;;;;;4.77;66.15;101352.70;1767329;81;21518;-68
2021/11/24 06:19:02;;;;;;;26.02;19.42;;;;;;;4.81;66.14;101352.63;1767131;81;20978;-68
2021/11/24 06:21:29;;;;;;;24.52;17.00;;;;;;;4.75;66.25;101356.88;1766955;81;20984;-69
2021/11/24 06:23:56;;;;;;;26.57;18.37;;;;;;;4.74;66.32;101355.73;1767135;81;21157;-70
2021/11/24 06:26:23;;;;;;;25.85;18.42;;;;;;;4.76;66.30;101361.15;1767134;81;21106;-69
2021/11/24 06:28:50;;;;;;;24.47;17.55;;;;;;;4.78;66.27;101352.52;1767052;81;21051;-70
2021/11/24 06:31:17;;;;;;;24.82;17.50;;;;;;;4.82;66.24;101358.22;1767627;81;21042;-69
2021/11/24 06:33:45;;;;;;;24.47;17.52;;;;;;;4.86;66.23;101360.27;1766904;81;21000;-69
2021/11/24 06:36:12;;;;;;;23.55;17.60;;;;;;;4.92;66.18;101356.01;1767424;81;21110;-69
2021/11/24 06:38:40;;;;;;;25.12;17.05;;;;;;;4.96;66.08;101355.91;1766996;81;21054;-69
2021/11/24 06:41:08;;;;;;;22.60;15.68;;;;;;;5.04;66.02;101362.87;1767235;81;21545;-70
2021/11/24 06:43:36;;;;;;;22.75;16.77;;;;;;;5.08;65.93;101356.16;1766933;81;21034;-71
2021/11/24 06:46:02;;;;;;;21.45;15.85;;;;;;;5.10;65.85;101360.72;1767490;81;21027;-68
2021/11/24 06:48:29;;;;;;;22.70;16.97;;;;;;;5.15;65.86;101358.30;1764184;81;21146;-70
2021/11/24 06:50:56;;;;;;;20.60;15.18;;;;;;;5.21;65.73;101357.50;1767180;81;21105;-70
2021/11/24 06:53:23;;;;;;;22.32;15.58;;;;;;;5.22;65.64;101360.45;1750707;81;21034;-71
2021/11/24 06:55:49;;;;;;;21.52;15.65;;;;;;;5.36;65.29;101363.44;1749737;82;21045;-71
2021/11/24 06:58:17;;;;;;;21.50;16.23;;;;;;;5.36;65.03;101364.77;1749351;82;20971;-70
2021/11/24 07:00:45;;;;;;;20.92;14.75;;;;;;;5.31;64.84;101370.34;1749426;82;21138;-70
2021/11/24 07:03:12;;;;;;;20.15;15.00;;;;;;;5.25;64.86;101365.34;1749112;82;20967;-70
2021/11/24 07:05:39;;;;;;;24.80;17.02;;;;;;;5.24;64.96;101362.39;1749579;82;20979;-70
2021/11/24 07:08:06;;;;;;;21.42;15.53;;;;;;;5.21;65.21;101369.93;1749526;82;21055;-71
2021/11/24 07:10:34;;;;;;;22.42;16.23;;;;;;;5.25;65.45;101374.61;1753206;81;21015;-72
2021/11/24 07:13:02;;;;;;;19.57;14.10;;;;;;;5.29;65.45;101373.19;1753488;78;21101;-71
2021/11/24 07:15:30;;;;;;;20.48;14.43;;;;;;;5.34;65.41;101376.57;1753430;80;21038;-70
2021/11/24 07:17:57;;;;;;;18.75;14.05;;;;;;;5.35;65.33;101373.70;1753395;79;20991;-70
2021/11/24 07:20:24;;;;;;;19.50;14.25;;;;;;;5.38;65.24;101371.17;1753431;80;20980;-70
2021/11/24 07:22:51;;;;;;;17.05;12.35;;;;;;;5.37;65.11;101378.30;1753279;82;20896;-71
2021/11/24 07:25:18;;;;;;;21.25;15.18;;;;;;;5.33;64.97;101374.44;1758197;81;21317;-71
2021/11/24 07:27:45;;;;;;;18.92;13.75;;;;;;;5.41;64.72;101371.58;1764273;80;21104;-72
2021/11/24 07:30:13;;;;;;;16.80;13.13;;;;;;;5.46;64.74;101366.17;1753146;80;20979;-71
2021/11/24 07:32:39;;;;;;;20.45;14.68;;;;;;;5.51;64.74;101363.23;1749837;82;20979;-71
2021/11/24 07:35:07;;;;;;;17.77;13.05;;;;;;;5.45;64.91;101367.20;1752759;82;20967;-74
2021/11/24 07:37:34;;;;;;;15.28;11.97;;;;;;;5.46;64.93;101373.61;1751253;82;21106;-70
2021/11/24 07:40:01;;;;;;;20.70;14.43;;;;;;;5.46;64.89;101372.28;1752153;81;21474;-70
2021/11/24 07:42:29;;;;;;;15.88;11.03;;;;;;;5.48;64.85;101378.72;1749659;82;21026;-70
2021/11/24 07:44:56;;;;;;;18.48;12.93;;;;;;;5.50;64.79;101378.02;1749609;82;21077;-70
2021/11/24 07:47:22;;;;;;;18.87;13.80;;;;;;;5.46;64.76;101384.20;1749619;82;21081;-70
2021/11/24 07:49:49;;;;;;;15.95;11.93;;;;;;;5.41;64.67;101377.39;1759678;81;21575;-70
2021/11/24 07:52:18;;;;;;;17.77;12.65;;;;;;;5.37;64.76;101388.91;1767283;81;21541;-70
2021/11/24 07:54:45;;;;;;;18.17;13.72;;;;;;;5.22;64.92;101390.09;1767479;81;21058;-70
2021/11/24 07:57:11;;;;;;;21.27;14.55;;;;;;;5.07;65.09;101386.30;1767209;81;21011;-70
2021/11/24 07:59:39;;;;;;;17.62;13.15;;;;;;;5.03;65.44;101391.67;1767360;81;21129;-70
2021/11/24 08:02:06;;;;;;;21.35;14.50;;;;;;;4.98;65.63;101394.92;1768217;81;21129;-70
2021/11/24 08:04:33;;;;;;;19.92;14.28;;;;;;;4.97;65.87;101393.78;1767293;81;21042;-70
2021/11/24 08:07:02;;;;;;;16.77;12.88;;;;;;;5.04;66.02;101394.65;1742260;81;21091;-70
2021/11/24 08:09:29;;;;;;;18.37;13.68;;;;;;;5.11;66.11;101392.83;1736794;82;21192;-69
2021/11/24 08:11:56;;;;;;;18.67;13.85;;;;;;;5.21;66.15;101389.80;1736875;82;21090;-70
2021/11/24 08:14:23;;;;;;;18.07;13.40;;;;;;;5.25;66.10;101393.16;1742599;81;21198;-69
2021/11/24 08:16:50;;;;;;;18.87;13.85;;;;;;;5.29;66.12;101394.89;1751930;81;21565;-70
2021/11/24 08:19:17;;;;;;;19.00;14.38;;;;;;;5.28;65.90;101395.41;1761689;81;20972;-70
2021/11/24 08:21:45;;;;;;;19.57;14.28;;;;;;;5.33;65.78;101393.46;1743517;81;21549;-72
2021/11/24 08:24:12;;;;;;;20.48;14.40;;;;;;;5.30;65.77;101393.89;1736940;81;21055;-70
2021/11/24 08:26:40;;;;;;;18.98;13.45;;;;;;;5.23;65.87;101403.15;1743780;81;21133;-70
2021/11/24 08:29:08;;;;;;;19.87;14.13;;;;;;;5.21;65.99;101393.25;1735654;81;21121;-70
2021/11/24 08:31:42;;;;;;;18.57;13.15;;;;;;;5.24;66.13;101390.20;1734675;81;21522;-71
2021/11/24 08:34:08;;;;;;;18.30;14.28;;;;;;;5.28;66.17;101395.41;1723421;81;21122;-71
2021/11/24 08:36:36;;;;;;;19.48;13.88;;;;;;;5.29;66.14;101385.11;1727062;81;21091;-69
2021/11/24 08:39:04;;;;;;;18.05;12.73;;;;;;;5.32;66.19;101387.87;1734810;81;21769;-71
2021/11/24 08:41:31;;;;;;;20.43;14.30;;;;;;;5.33;66.10;101383.70;1725562;81;20985;-70
2021/11/24 08:43:59;;;;;;;19.25;13.08;;;;;;;5.33;66.04;101389.00;1742044;81;20991;-70
2021/11/24 08:49:48;;;;;;;18.25;13.20;;;;;;;5.31;66.36;101386.24;1729912;81;21067;-70
2021/11/24 08:52:15;;;;;;;17.00;12.10;;;;;;;5.39;66.41;101388.69;1723419;81;22145;-70
2021/11/24 08:55:01;;;;;;;17.73;11.83;;;;;;;5.40;66.27;101380.55;1723329;81;21065;-69
2021/11/24 08:57:40;;;;;;;16.55;12.65;;;;;;;5.45;66.17;101377.80;1723130;81;21028;-71
2021/11/24 09:00:13;;;;;;;17.57;12.35;;;;;;;5.48;66.10;101378.20;1733187;81;21004;-70
2021/11/24 09:02:42;;;;;;;16.25;11.90;;;;;;;5.53;65.91;101379.75;1723774;81;21149;-68
2021/11/24 09:05:10;;;;;;;14.90;10.68;;;;;;;5.61;65.82;101376.88;1722078;83;21815;-70
2021/11/24 09:07:37;;;;;;;15.63;11.30;;;;;;;5.67;65.52;101371.28;1717591;83;21028;-71
2021/11/24 09:10:05;;;;;;;13.20;9.93;;;;;;;5.73;65.37;101370.47;1733418;82;21069;-70
2021/11/24 09:12:32;;;;;;;15.85;11.18;;;;;;;5.88;65.49;101377.69;1730375;83;21538;-70
2021/11/24 09:15:00;;;;;;;14.93;10.70;;;;;;;6.04;64.94;101373.02;1730390;83;21011;-70
2021/11/24 09:17:26;;;;;;;14.00;10.90;;;;;;;6.11;64.48;101379.11;1731052;82;21731;-69
2021/11/24 09:19:54;;;;;;;15.28;10.82;;;;;;;6.17;64.19;101373.50;1732092;82;21078;-70
2021/11/24 09:22:21;;;;;;;14.65;10.38;;;;;;;6.25;64.05;101371.94;1749186;81;21056;-70
2021/11/24 09:24:53;;;;;;;15.00;11.22;;;;;;;6.33;63.96;101372.54;1758818;81;21947;-71
2021/11/24 09:27:18;;;;;;;14.90;10.30;;;;;;;6.46;63.59;101375.66;1750380;81;21055;-69
2021/11/24 09:29:48;;;;;;;13.62;9.83;;;;;;;6.56;63.34;101373.90;1764198;81;21522;-72
2021/11/24 09:32:17;;;;;;;11.80;8.88;;;;;;;6.68;63.38;101369.56;1764027;81;21090;-71
2021/11/24 09:34:44;;;;;;;13.35;9.75;;;;;;;6.83;62.95;101371.12;1763813;81;20991;-71
2021/11/24 09:41:30;;;;;;;15.35;10.55;;;;;;;6.83;62.13;101367.14;1684795;84;21000;-71
2021/11/24 09:44:03;;;;;;;13.90;10.45;;;;;;;6.82;61.76;101368.98;1697458;81;21133;-71
2021/11/24 09:46:29;;;;;;;13.60;10.32;;;;;;;6.70;61.57;101373.33;1764172;81;21407;-70
2021/11/24 09:48:59;;;;;;;14.07;10.08;;;;;;;6.66;61.73;101380.09;1764177;81;21070;-70
2021/11/24 09:51:25;;;;;;;11.93;8.90;;;;;;;6.65;61.59;101372.64;1764201;81;21445;-68
2021/11/24 09:53:52;;;;;;;13.65;10.35;;;;;;;6.67;61.91;101363.94;1764037;81;21094;-71
2021/11/24 09:56:19;;;;;;;13.90;10.00;;;;;;;6.62;62.20;101375.72;1764181;81;21961;-71
2021/11/24 09:58:45;;;;;;;12.20;9.75;;;;;;;6.61;62.04;101374.06;1762606;81;21494;-70
2021/11/24 10:01:12;;;;;;;13.93;10.53;;;;;;;6.65;62.29;101367.33;1734096;82;21019;-70
2021/11/24 10:03:39;;;;;;;11.95;9.43;;;;;;;6.72;62.35;101361.48;1733700;82;21042;-72
2021/11/24 10:06:06;;;;;;;14.95;10.68;;;;;;;6.85;62.35;101358.46;1733609;82;21070;-70
2021/11/24 10:08:34;;;;;;;13.32;10.88;;;;;;;6.88;61.96;101356.68;1724618;82;21523;-71
2021/11/24 10:11:02;;;;;;;14.58;11.20;;;;;;;6.81;62.08;101358.88;1752183;82;21494;-69
2021/11/24 10:13:29;;;;;;;14.98;10.78;;;;;;;6.77;62.04;101358.98;1732242;81;20951;-69
2021/11/24 10:15:58;;;;;;;16.07;10.65;;;;;;;6.81;62.13;101358.88;1738996;81;20975;-69
2021/11/24 10:18:35;;;;;;;13.85;10.68;;;;;;;6.89;62.05;101350.36;1727882;81;20943;-69
2021/11/24 10:21:11;;;;;;;14.47;10.70;;;;;;;6.91;62.15;101346.96;1754694;81;21881;-69
2021/11/24 10:23:43;;;;;;;14.60;11.08;;;;;;;7.00;62.04;101346.50;1754177;81;21046;-69
2021/11/24 10:26:34;;;;;;;16.00;11.45;;;;;;;7.04;61.71;101338.91;1754762;81;21454;-70
2021/11/24 10:29:09;;;;;;;14.30;11.00;;;;;;;7.04;61.46;101345.55;1752959;81;21042;-72
2021/11/24 10:31:40;;;;;;;14.87;11.53;;;;;;;7.09;61.30;101353.71;1754805;81;21075;-71
2021/11/24 10:34:24;;;;;;;12.93;10.45;;;;;;;7.11;61.33;101352.99;1755069;81;21164;-71
2021/11/24 10:37:08;;;;;;;15.68;11.35;;;;;;;7.14;61.21;101355.71;1754927;81;21510;-69
2021/11/24 10:39:51;;;;;;;14.00;10.40;;;;;;;7.28;61.05;101351.44;1754787;81;21153;-68
2021/11/24 10:42:34;;;;;;;13.98;10.68;;;;;;;7.52;60.46;101351.66;1754972;81;21116;-69
2021/11/24 10:45:16;;;;;;;13.38;9.30;;;;;;;7.48;60.05;101346.49;1754819;80;21620;-70
2021/11/24 10:47:59;;;;;;;11.85;8.50;;;;;;;7.52;59.50;101345.02;1757292;81;21126;-69
2021/11/24 10:50:30;;;;;;;13.50;9.30;;;;;;;7.52;58.38;101352.99;1757712;81;21556;-69
2021/11/24 10:52:57;;;;;;;12.47;9.38;;;;;;;7.41;58.25;101353.19;1757429;81;21007;-69
2021/11/24 10:55:27;;;;;;;12.13;8.63;;;;;;;7.31;58.61;101349.39;1757332;81;21500;-69
2021/11/24 10:58:24;;;;;;;11.90;9.25;;;;;;;7.33;58.90;101349.97;1757464;81;21030;-69
2021/11/24 11:00:47;;;;;;;12.60;8.85;;;;;;;7.35;58.85;101354.56;1756148;81;21153;-69
2021/11/24 11:03:14;;;;;;;13.80;9.38;;;;;;;7.29;58.66;101345.08;1760429;80;20992;-70
2021/11/24 11:05:45;;;;;;;13.58;9.75;;;;;;;7.30;58.71;101349.88;1773074;80;21451;-70
2021/11/24 11:08:15;;;;;;;12.80;9.93;;;;;;;7.34;58.80;101347.60;1755448;81;21036;-70
2021/11/24 11:10:47;;;;;;;11.78;9.18;;;;;;;7.40;59.03;101346.22;1756039;81;21031;-68
2021/11/24 11:13:20;;;;;;;12.70;10.03;;;;;;;7.46;59.21;101345.36;1783137;80;21131;-68
2021/11/24 11:15:53;;;;;;;13.38;9.75;;;;;;;7.42;59.26;101339.38;1782735;80;21031;-68
2021/11/24 11:18:28;;;;;;;10.65;8.33;;;;;;;7.37;59.11;101338.71;1783189;80;21466;-69
2021/11/24 11:21:11;;;;;;;11.57;9.35;;;;;;;7.41;59.21;101341.75;1783117;80;21537;-69
2021/11/24 11:23:48;;;;;;;12.98;9.15;;;;;;;7.41;58.81;101339.90;1782930;80;21153;-69
2021/11/24 11:26:22;;;;;;;13.88;9.35;;;;;;;7.41;59.06;101329.79;1783173;80;21640;-69
2021/11/24 11:28:55;;;;;;;12.93;7.78;;;;;;;7.40;58.83;101326.81;1782952;80;20940;-69
2021/11/24 11:31:24;;;;;;;11.43;7.92;;;;;;;7.38;57.93;101323.58;1783591;80;20960;-69